Home > Products > Valid Products > TAF

000
FTUS43 KSGF 031720
TAFJLN
TAF
KJLN 031720Z 0318/0418 24010KT P6SM SCT050 SCT250
     FM032200 21005KT P6SM FEW250
     FM041530 24006G14KT P6SM SCT070 BKN180=



000
FTUS43 KSGF 031720
TAFSGF
TAF
KSGF 031720Z 0318/0418 26007KT P6SM FEW045 SCT250
     FM032300 20004KT P6SM SCT250
     FM041530 17003KT P6SM SCT200=



000
FTUS43 KSGF 031100
TAFJLN
TAF
KJLN 031120Z 0312/0412 20004KT P6SM SCT120
     FM031400 21007KT P6SM SCT120
     FM031800 25010KT P6SM SCT050
     FM040100 18003KT P6SM SCT250=



000
FTUS43 KSGF 031100
TAFJLN
TAF
KJLN 031120Z 0312/0412 20004KT P6SM SCT120
     FM031400 21007KT P6SM SCT120
     FM031800 25010KT P6SM SCT050
     FM040100 18003KT P6SM SCT250=



000
FTUS43 KSGF 031100
TAFSGF
TAF
KSGF 031120Z 0312/0412 20004KT P6SM SCT250
     FM031500 27008KT P6SM SCT050 SCT120
     FM040000 21006KT P6SM SCT120 SCT250
     FM040300 17003KT P6SM SCT250=



000
FTUS43 KSGF 031100
TAFSGF
TAF
KSGF 031120Z 0312/0412 20004KT P6SM SCT250
     FM031500 27008KT P6SM SCT050 SCT120
     FM040000 21006KT P6SM SCT120 SCT250
     FM040300 17003KT P6SM SCT250=



000
FTUS43 KSGF 030500
TAFJLN
TAF
KJLN 030520Z 0306/0406 18004KT P6SM SKC
     FM031430 23010KT P6SM FEW050 SCT250
     FM040100 VRB04KT P6SM SCT250=



000
FTUS43 KSGF 030500
TAFSGF
TAF
KSGF 030520Z 0306/0406 20005KT P6SM SKC
     FM031430 25010KT P6SM FEW050 SCT250
     FM040100 VRB04KT P6SM SCT250=



000
FTUS43 KSGF 030500
TAFJLN
TAF
KJLN 030520Z 0306/0406 18004KT P6SM SKC
     FM031430 23010KT P6SM FEW050 SCT250
     FM040100 VRB04KT P6SM SCT250=



000
FTUS43 KSGF 030500
TAFSGF
TAF
KSGF 030520Z 0306/0406 20005KT P6SM SKC
     FM031430 25010KT P6SM FEW050 SCT250
     FM040100 VRB04KT P6SM SCT250=



000
FTUS43 KSGF 022300
TAFSGF
TAF
KSGF 022330Z 0300/0324 21004KT P6SM SKC
     FM031430 25010KT P6SM FEW050 SCT250=



000
FTUS43 KSGF 022300
TAFJLN
TAF
KJLN 022330Z 0300/0324 21010G18KT P6SM SKC
     FM030100 20005KT P6SM SKC
     FM031430 23010KT P6SM FEW050 SCT250=



000
FTUS43 KSGF 022300
TAFJLN
TAF
KJLN 022330Z 0300/0324 21010G18KT P6SM SKC
     FM030100 20005KT P6SM SKC
     FM031430 23010KT P6SM FEW050 SCT250=



000
FTUS43 KSGF 022300
TAFSGF
TAF
KSGF 022330Z 0300/0324 21004KT P6SM SKC
     FM031430 25010KT P6SM FEW050 SCT250=



000
FTUS43 KSGF 021700
TAFJLN
TAF
KJLN 021728Z 0218/0318 22012KT P6SM SCT100
     FM030000 20005KT P6SM SCT250
     FM031400 23008KT P6SM SCT250=



000
FTUS43 KSGF 021700
TAFSGF
TAF
KSGF 021728Z 0218/0318 25010G15KT P6SM SCT250
     FM030000 20005KT P6SM SCT250
     FM031400 23008KT P6SM SCT250=



000
FTUS43 KSGF 021700
TAFJLN
TAF
KJLN 021728Z 0218/0318 22012KT P6SM SCT100
     FM030000 20005KT P6SM SCT250
     FM031400 23008KT P6SM SCT250=



000
FTUS43 KSGF 021700
TAFSGF
TAF
KSGF 021728Z 0218/0318 25010G15KT P6SM SCT250
     FM030000 20005KT P6SM SCT250
     FM031400 23008KT P6SM SCT250=



000
FTUS43 KSGF 021100
TAFJLN
TAF
KJLN 021120Z 0212/0312 17005KT P6SM SKC
     FM021500 23010G18KT P6SM SCT250
     FM030100 18004KT P6SM BKN200=



000
FTUS43 KSGF 021100
TAFSGF
TAF
KSGF 021120Z 0212/0312 00000KT P6SM SCT150
     FM021500 22010KT P6SM SCT200
     FM030100 19003KT P6SM SCT200=



000
FTUS43 KSGF 021100
TAFJLN
TAF
KJLN 021120Z 0212/0312 17005KT P6SM SKC
     FM021500 23010G18KT P6SM SCT250
     FM030100 18004KT P6SM BKN200=



000
FTUS43 KSGF 021100
TAFSGF
TAF
KSGF 021120Z 0212/0312 00000KT P6SM SCT150
     FM021500 22010KT P6SM SCT200
     FM030100 19003KT P6SM SCT200=



000
FTUS43 KSGF 020500
TAFSGF
TAF
KSGF 020520Z 0206/0306 VRB03KT P6SM SKC
     FM021430 22010KT P6SM FEW250
     FM030100 19003KT P6SM SKC=



000
FTUS43 KSGF 020500
TAFJLN
TAF
KJLN 020520Z 0206/0306 VRB03KT P6SM SKC
     FM021430 22010G18KT P6SM FEW250
     FM030100 18004KT P6SM SKC=



000
FTUS43 KSGF 020000 AAA
TAFJLN
TAF AMD
KJLN 020034Z 0201/0224 18003KT P6SM VCSH SCT050 SCT120
     FM020200 18003KT P6SM SKC
     FM021430 22010G18KT P6SM SKC=



000
FTUS43 KSGF 020000 AAA
TAFJLN
TAF AMD
KJLN 020034Z 0201/0224 18003KT P6SM VCSH SCT050 SCT120
     FM020200 18003KT P6SM SKC
     FM021430 22010G18KT P6SM SKC=



000
FTUS43 KSGF 012300
TAFSGF
TAF
KSGF 012332Z 0200/0224 VRB03KT P6SM SKC
     FM021430 22010KT P6SM FEW250=



000
FTUS43 KSGF 012300
TAFJLN
TAF
KJLN 012332Z 0200/0224 18003KT P6SM SKC
     FM021430 22010G18KT P6SM SKC=



000
FTUS43 KSGF 011700
TAFSGF
TAF
KSGF 011720Z 0118/0218 VRB04KT P6SM FEW250=



000
FTUS43 KSGF 011700
TAFSGF
TAF
KSGF 011720Z 0118/0218 VRB04KT P6SM FEW250=



000
FTUS43 KSGF 011700
TAFJLN
TAF
KJLN 011720Z 0118/0218 VRB05KT P6SM SKC
     FM021600 23010KT P6SM SKC=



000
FTUS43 KSGF 011700
TAFJLN
TAF
KJLN 011720Z 0118/0218 VRB05KT P6SM SKC
     FM021600 23010KT P6SM SKC=



000
FTUS43 KSGF 011100
TAFSGF
TAF
KSGF 011120Z 0112/0212 VRB04KT P6SM FEW250=



000
FTUS43 KSGF 011100
TAFSGF
TAF
KSGF 011120Z 0112/0212 VRB04KT P6SM FEW250=



000
FTUS43 KSGF 011100
TAFJLN
TAF
KJLN 011120Z 0112/0212 VRB05KT P6SM FEW250=



000
FTUS43 KSGF 011100
TAFJLN
TAF
KJLN 011120Z 0112/0212 VRB05KT P6SM FEW250=



000
FTUS43 KSGF 010500
TAFJLN
TAF
KJLN 010520Z 0106/0206 VRB04KT P6SM FEW250=



000
FTUS43 KSGF 010500
TAFSGF
TAF
KSGF 010520Z 0106/0206 VRB04KT P6SM FEW250=



000
FTUS43 KSGF 312300
TAFJLN
TAF
KJLN 312325Z 0100/0124 VRB05KT P6SM FEW120=



000
FTUS43 KSGF 312300
TAFSGF
TAF
KSGF 312325Z 0100/0124 VRB05KT P6SM FEW120=



000
FTUS43 KSGF 312300
TAFJLN
TAF
KJLN 312325Z 0100/0124 VRB05KT P6SM FEW120=



000
FTUS43 KSGF 312300
TAFSGF
TAF
KSGF 312325Z 0100/0124 VRB05KT P6SM FEW120=



    US Dept of Commerce
    National Oceanic and Atmospheric Administration
    National Weather Service
    1325 East West Highway
    Silver Spring, MD 20910
    Page Author: NWS Internet Services Team
Disclaimer
Information Quality
Credits
Glossary
Privacy Policy
Freedom of Information Act (FOIA)
About Us
Career Opportunities